createdAt,value
2023-02-15T00:00:46.012Z,100.00
2023-02-15T00:03:17.800Z,100.00
2023-02-15T00:05:49.323Z,100.00
2023-02-15T00:08:20.810Z,100.00
2023-02-15T00:10:52.333Z,100.00
2023-02-15T00:13:24.018Z,100.00
2023-02-15T00:15:55.523Z,100.00
2023-02-15T00:18:27.344Z,100.00
2023-02-15T00:20:58.889Z,100.00
2023-02-15T00:23:30.714Z,100.00
2023-02-15T00:26:02.416Z,100.00
2023-02-15T00:28:34.456Z,100.00
2023-02-15T00:31:06.149Z,100.00
2023-02-15T00:33:38.069Z,100.00
2023-02-15T00:36:09.588Z,100.00
2023-02-15T00:38:41.394Z,100.00
2023-02-15T00:41:13.232Z,100.00
2023-02-15T00:43:44.717Z,100.00
2023-02-15T00:46:16.222Z,100.00
2023-02-15T00:48:47.716Z,100.00
2023-02-15T00:51:19.295Z,100.00
2023-02-15T00:53:50.780Z,100.00
2023-02-15T00:56:22.577Z,100.00
2023-02-15T00:58:54.063Z,100.00
2023-02-15T01:01:27.192Z,100.00
2023-02-15T01:03:58.791Z,100.00
2023-02-15T01:06:30.748Z,100.00
2023-02-15T01:09:02.278Z,100.00
2023-02-15T01:11:34.258Z,100.00
2023-02-15T01:14:06.437Z,100.00
2023-02-15T01:16:38.115Z,100.00
2023-02-15T01:19:09.631Z,100.00
2023-02-15T01:21:42.018Z,100.00
2023-02-15T01:24:13.805Z,100.00
2023-02-15T01:26:45.558Z,100.00
2023-02-15T01:29:17.111Z,100.00
2023-02-15T01:31:49.064Z,100.00
2023-02-15T01:34:20.642Z,100.00
2023-02-15T01:36:52.450Z,100.00
2023-02-15T01:39:23.954Z,100.00
2023-02-15T01:41:55.877Z,100.00
2023-02-15T01:44:27.555Z,100.00
2023-02-15T01:46:59.424Z,100.00
2023-02-15T01:49:30.930Z,100.00
2023-02-15T01:52:02.855Z,100.00
2023-02-15T01:54:34.944Z,100.00
2023-02-15T01:57:06.664Z,100.00
2023-02-15T01:59:38.158Z,100.00
2023-02-15T02:02:10.273Z,100.00
2023-02-15T02:04:41.824Z,100.00
2023-02-15T02:07:13.691Z,100.00
2023-02-15T02:09:45.230Z,100.00
2023-02-15T02:12:16.837Z,100.00
2023-02-15T02:14:48.354Z,100.00
2023-02-15T02:17:19.909Z,100.00
2023-02-15T02:19:51.385Z,100.00
2023-02-15T02:22:23.038Z,100.00
2023-02-15T02:24:54.531Z,100.00
2023-02-15T02:27:26.332Z,100.00
2023-02-15T02:29:57.935Z,100.00
2023-02-15T02:32:29.789Z,100.00
2023-02-15T02:35:01.295Z,100.00
2023-02-15T02:37:33.076Z,100.00
2023-02-15T02:40:05.183Z,100.00
2023-02-15T02:42:37.023Z,100.00
2023-02-15T02:45:08.512Z,100.00
2023-02-15T02:47:40.026Z,100.00
2023-02-15T02:50:11.523Z,100.00
2023-02-15T02:52:43.395Z,100.00
2023-02-15T02:55:14.937Z,100.00
2023-02-15T02:57:46.698Z,100.00
2023-02-15T03:00:18.214Z,100.00
2023-02-15T03:02:50.340Z,100.00
2023-02-15T03:05:21.943Z,100.00
2023-02-15T03:07:53.485Z,100.00
2023-02-15T03:10:25.061Z,100.00
2023-02-15T03:12:56.897Z,100.00
2023-02-15T03:15:48.405Z,100.00
2023-02-15T03:18:19.992Z,100.00
2023-02-15T03:20:51.502Z,100.00
2023-02-15T03:23:23.061Z,100.00
2023-02-15T03:25:54.564Z,100.00
2023-02-15T03:28:26.406Z,100.00
2023-02-15T03:30:58.085Z,100.00
2023-02-15T03:33:30.132Z,100.00
2023-02-15T03:36:01.919Z,100.00
2023-02-15T03:38:33.850Z,100.00
2023-02-15T03:41:11.586Z,100.00
2023-02-15T03:43:43.366Z,100.00
2023-02-15T03:46:14.878Z,100.00
2023-02-15T03:48:46.759Z,100.00
2023-02-15T03:51:37.331Z,100.00
2023-02-15T03:54:09.542Z,100.00
2023-02-15T03:56:41.109Z,100.00
2023-02-15T03:59:31.885Z,100.00
2023-02-15T04:02:03.760Z,100.00
2023-02-15T04:04:35.272Z,100.00
2023-02-15T04:07:07.154Z,100.00
2023-02-15T04:09:57.324Z,100.00
2023-02-15T04:12:29.011Z,100.00
2023-02-15T04:15:19.074Z,100.00
2023-02-15T04:17:50.827Z,100.00
2023-02-15T04:20:41.109Z,100.00
2023-02-15T04:23:31.498Z,100.00
2023-02-15T04:26:03.279Z,100.00
2023-02-15T04:28:35.213Z,100.00
2023-02-15T04:31:06.729Z,100.00
2023-02-15T04:33:38.693Z,100.00
2023-02-15T04:36:10.187Z,100.00
2023-02-15T04:38:41.984Z,100.00
2023-02-15T04:41:14.035Z,100.00
2023-02-15T04:43:45.786Z,100.00
2023-02-15T04:46:17.319Z,100.00
2023-02-15T04:48:49.120Z,100.00
2023-02-15T04:51:20.626Z,100.00
2023-02-15T04:53:53.814Z,100.00
2023-02-15T04:56:25.354Z,100.00
2023-02-15T04:58:57.238Z,100.00
2023-02-15T05:01:28.890Z,100.00
2023-02-15T05:04:00.776Z,100.00
2023-02-15T05:06:32.297Z,100.00
2023-02-15T05:09:04.108Z,100.00
2023-02-15T05:11:35.622Z,100.00
2023-02-15T05:14:07.557Z,100.00
2023-02-15T05:16:39.067Z,100.00
2023-02-15T05:19:11.897Z,100.00
2023-02-15T05:21:43.419Z,100.00
2023-02-15T05:24:33.860Z,100.00
2023-02-15T05:27:24.041Z,100.00
2023-02-15T05:29:55.769Z,100.00
2023-02-15T05:32:27.510Z,100.00
2023-02-15T05:34:59.454Z,100.00
2023-02-15T05:37:30.953Z,100.00
2023-02-15T05:40:02.736Z,100.00
2023-02-15T05:42:34.249Z,100.00
2023-02-15T05:45:06.851Z,100.00
2023-02-15T05:47:38.394Z,100.00
2023-02-15T05:50:10.209Z,100.00
2023-02-15T05:52:41.704Z,100.00
2023-02-15T05:55:13.764Z,100.00
2023-02-15T05:57:45.251Z,100.00
2023-02-15T06:00:17.036Z,100.00
2023-02-15T06:02:48.574Z,100.00
2023-02-15T06:05:20.293Z,100.00
2023-02-15T06:07:51.795Z,100.00
2023-02-15T06:10:23.670Z,100.00
2023-02-15T06:12:55.172Z,100.00
2023-02-15T06:15:26.892Z,100.00
2023-02-15T06:17:58.431Z,100.00
2023-02-15T06:20:29.941Z,100.00
2023-02-15T06:23:01.725Z,100.00
2023-02-15T06:25:35.245Z,100.00
2023-02-15T06:28:07.899Z,100.00
2023-02-15T06:30:39.420Z,100.00
2023-02-15T06:33:10.953Z,100.00
2023-02-15T06:35:42.570Z,100.00
2023-02-15T06:38:14.077Z,100.00
2023-02-15T06:40:45.557Z,100.00
2023-02-15T06:43:17.063Z,100.00
2023-02-15T06:45:48.589Z,100.00
2023-02-15T06:48:20.198Z,100.00
2023-02-15T06:50:51.737Z,100.00
2023-02-15T06:53:23.774Z,100.00
2023-02-15T06:55:55.384Z,100.00
2023-02-15T06:58:27.185Z,100.00
2023-02-15T07:00:58.671Z,100.00
2023-02-15T07:03:30.543Z,100.00
2023-02-15T07:06:02.410Z,100.00
2023-02-15T07:08:34.532Z,100.00
2023-02-15T07:11:24.805Z,100.00
2023-02-15T07:13:56.799Z,100.00
2023-02-15T07:16:29.025Z,100.00
2023-02-15T07:19:00.918Z,100.00
2023-02-15T07:21:32.418Z,100.00
2023-02-15T07:24:04.307Z,100.00
2023-02-15T07:26:35.828Z,100.00
2023-02-15T07:29:07.778Z,100.00
2023-02-15T07:31:39.294Z,100.00
2023-02-15T07:34:10.788Z,100.00
2023-02-15T07:36:58.216Z,100.00
2023-02-15T07:39:29.731Z,100.00
2023-02-15T07:42:01.244Z,100.00
2023-02-15T07:44:33.142Z,100.00
2023-02-15T07:47:04.693Z,100.00
2023-02-15T07:49:36.548Z,100.00
2023-02-15T07:52:08.135Z,100.00
2023-02-15T07:54:40.088Z,100.00
2023-02-15T07:57:11.622Z,100.00
2023-02-15T07:59:43.456Z,100.00
2023-02-15T08:02:16.910Z,100.00
2023-02-15T08:04:49.998Z,100.00
2023-02-15T08:07:21.554Z,100.00
2023-02-15T08:09:54.654Z,100.00
2023-02-15T08:12:26.199Z,100.00
2023-02-15T08:14:57.703Z,100.00
2023-02-15T08:17:29.213Z,100.00
2023-02-15T08:20:00.736Z,100.00
2023-02-15T08:22:32.231Z,100.00
2023-02-15T08:25:03.961Z,100.00
2023-02-15T08:27:35.433Z,100.00
2023-02-15T08:30:07.286Z,100.00
2023-02-15T08:32:38.858Z,100.00
2023-02-15T08:35:11.046Z,100.00
2023-02-15T08:37:42.521Z,100.00
2023-02-15T08:40:14.530Z,100.00
2023-02-15T08:42:46.003Z,100.00
2023-02-15T08:45:17.513Z,100.00
2023-02-15T08:47:49.008Z,100.00
2023-02-15T08:50:20.511Z,100.00
2023-02-15T08:52:52.019Z,100.00
2023-02-15T08:55:23.950Z,100.00
2023-02-15T08:57:56.510Z,100.00
2023-02-15T09:00:29.823Z,100.00
2023-02-15T09:03:01.366Z,100.00
2023-02-15T09:05:33.320Z,100.00
2023-02-15T09:08:04.962Z,100.00
2023-02-15T09:10:36.940Z,100.00
2023-02-15T09:13:08.705Z,100.00
2023-02-15T09:15:40.548Z,100.00
2023-02-15T09:18:13.180Z,100.00
2023-02-15T09:20:45.722Z,100.00
2023-02-15T09:23:26.819Z,100.00
2023-02-15T09:25:58.726Z,100.00
2023-02-15T09:28:30.598Z,100.00
2023-02-15T09:31:02.321Z,100.00
2023-02-15T09:33:33.965Z,100.00
2023-02-15T09:36:05.468Z,100.00
2023-02-15T09:38:37.206Z,100.00
2023-02-15T09:41:08.766Z,100.00
2023-02-15T09:43:40.564Z,100.00
2023-02-15T09:46:12.304Z,100.00
2023-02-15T09:48:44.250Z,100.00
2023-02-15T09:51:15.713Z,100.00
2023-02-15T09:53:47.636Z,100.00
2023-02-15T09:56:21.013Z,100.00
2023-02-15T09:58:53.962Z,100.00
2023-02-15T10:01:25.861Z,100.00
2023-02-15T10:03:57.831Z,100.00
2023-02-15T10:06:29.355Z,100.00
2023-02-15T10:09:01.216Z,100.00
2023-02-15T10:11:41.763Z,100.00
2023-02-15T10:14:13.803Z,100.00
2023-02-15T10:16:45.453Z,100.00
2023-02-15T10:19:16.952Z,100.00
2023-02-15T10:21:48.474Z,100.00
2023-02-15T10:24:19.963Z,100.00
2023-02-15T10:26:51.444Z,100.00
2023-02-15T10:29:23.003Z,100.00
2023-02-15T10:31:54.602Z,100.00
2023-02-15T10:34:26.167Z,100.00
2023-02-15T10:36:57.651Z,100.00
2023-02-15T10:39:29.759Z,100.00
2023-02-15T10:42:01.267Z,100.00
2023-02-15T10:44:32.979Z,100.00
2023-02-15T10:47:04.495Z,100.00
2023-02-15T10:49:36.284Z,100.00
2023-02-15T10:52:07.742Z,99.56
2023-02-15T10:54:39.699Z,100.00
2023-02-15T10:57:11.245Z,97.89
2023-02-15T10:59:42.845Z,100.00
2023-02-15T11:02:14.407Z,100.00
2023-02-15T11:04:46.165Z,100.00
2023-02-15T11:07:17.769Z,100.00
2023-02-15T11:09:49.547Z,100.00
2023-02-15T11:12:21.063Z,100.00
2023-02-15T11:14:54.404Z,96.98
2023-02-15T11:17:25.906Z,95.96
2023-02-15T11:19:57.732Z,97.95
2023-02-15T11:22:29.209Z,98.37
2023-02-15T11:25:01.058Z,99.85
2023-02-15T11:27:34.010Z,96.72
2023-02-15T11:30:05.779Z,95.50
2023-02-15T11:32:37.314Z,94.21
2023-02-15T11:35:09.159Z,91.28
2023-02-15T11:37:40.657Z,92.91
2023-02-15T11:40:12.467Z,93.36
2023-02-15T11:42:43.946Z,90.30
2023-02-15T11:45:15.450Z,90.17
2023-02-15T11:47:46.930Z,88.45
2023-02-15T11:50:19.227Z,88.07
2023-02-15T11:52:50.791Z,85.59
2023-02-15T11:55:22.494Z,87.79
2023-02-15T11:57:54.046Z,91.96
2023-02-15T12:00:25.924Z,91.16
2023-02-15T12:02:57.513Z,91.51
2023-02-15T12:05:29.472Z,91.25
2023-02-15T12:08:01.021Z,90.12
2023-02-15T12:10:32.837Z,88.74
2023-02-15T12:13:04.325Z,89.33
2023-02-15T12:15:36.264Z,89.72
2023-02-15T12:18:08.303Z,87.21
2023-02-15T12:20:39.813Z,87.96
2023-02-15T12:23:11.291Z,89.06
2023-02-15T12:25:43.273Z,89.50
2023-02-15T12:28:15.065Z,88.47
2023-02-15T12:30:47.261Z,88.32
2023-02-15T12:33:18.734Z,87.51
2023-02-15T12:35:51.699Z,86.07
2023-02-15T12:38:23.178Z,87.21
2023-02-15T12:40:55.036Z,87.69
2023-02-15T12:43:26.563Z,85.62
2023-02-15T12:45:58.486Z,86.87
2023-02-15T12:48:29.998Z,84.88
2023-02-15T12:51:01.525Z,84.05
2023-02-15T12:53:33.165Z,82.38
2023-02-15T12:56:04.786Z,81.28
2023-02-15T12:58:36.260Z,80.42
2023-02-15T13:01:08.079Z,79.53
2023-02-15T13:03:39.669Z,78.59
2023-02-15T13:06:11.537Z,78.42
2023-02-15T13:08:43.031Z,78.87
2023-02-15T13:11:15.574Z,78.09
2023-02-15T13:13:47.175Z,78.24
2023-02-15T13:16:18.685Z,77.03
2023-02-15T13:18:50.156Z,76.32
2023-02-15T13:21:21.689Z,78.17
2023-02-15T13:23:53.210Z,77.65
2023-02-15T13:26:25.125Z,77.98
2023-02-15T13:28:56.691Z,76.94
2023-02-15T13:31:29.046Z,76.07
2023-02-15T13:34:00.621Z,75.37
2023-02-15T13:36:32.708Z,77.23
2023-02-15T13:39:04.239Z,76.10
2023-02-15T13:41:36.814Z,75.17
2023-02-15T13:44:08.451Z,74.55
2023-02-15T13:46:41.258Z,73.13
2023-02-15T13:49:14.170Z,72.97
2023-02-15T13:51:45.958Z,70.88
2023-02-15T13:54:17.461Z,70.50
2023-02-15T13:56:49.318Z,71.95
2023-02-15T13:59:20.819Z,70.99
2023-02-15T14:01:52.722Z,71.35
2023-02-15T14:04:24.307Z,71.34
2023-02-15T14:06:56.635Z,71.26
2023-02-15T14:09:28.115Z,70.21
2023-02-15T14:12:00.018Z,70.23
2023-02-15T14:14:31.739Z,69.46
2023-02-15T14:17:07.320Z,67.67
2023-02-15T14:19:39.182Z,67.20
2023-02-15T14:22:12.670Z,66.52
2023-02-15T14:24:45.446Z,66.92
2023-02-15T14:27:16.972Z,65.46
2023-02-15T14:29:48.558Z,65.32
2023-02-15T14:32:20.281Z,64.26
2023-02-15T14:34:51.927Z,65.00
2023-02-15T14:37:23.599Z,65.27
2023-02-15T14:40:14.030Z,65.54
2023-02-15T14:42:45.513Z,65.45
2023-02-15T14:45:17.009Z,66.04
2023-02-15T14:47:48.486Z,68.12
2023-02-15T14:50:19.989Z,68.74
2023-02-15T14:52:51.499Z,68.51
2023-02-15T14:55:23.031Z,69.46
2023-02-15T14:57:54.545Z,70.84
2023-02-15T15:00:26.341Z,72.08
2023-02-15T15:02:57.856Z,71.24
2023-02-15T15:05:29.806Z,71.30
2023-02-15T15:08:01.316Z,72.30
2023-02-15T15:10:33.197Z,72.27
2023-02-15T15:13:04.702Z,71.31
2023-02-15T15:15:38.409Z,70.17
2023-02-15T15:18:11.029Z,70.32
2023-02-15T15:20:43.176Z,69.97
2023-02-15T15:23:14.667Z,70.82
2023-02-15T15:25:46.580Z,69.65
2023-02-15T15:28:18.087Z,70.54
2023-02-15T15:30:50.097Z,70.77
2023-02-15T15:33:21.703Z,71.13
2023-02-15T15:35:53.898Z,70.52
2023-02-15T15:38:25.479Z,70.18
2023-02-15T15:40:57.286Z,70.87
2023-02-15T15:43:31.333Z,71.78
2023-02-15T15:46:03.316Z,73.67
2023-02-15T15:48:35.589Z,74.01
2023-02-15T15:51:07.117Z,74.30
2023-02-15T15:53:38.634Z,75.37
2023-02-15T15:56:11.312Z,76.51
2023-02-15T15:58:42.804Z,77.98
2023-02-15T16:01:15.651Z,79.04
2023-02-15T16:03:47.194Z,79.72
2023-02-15T16:06:18.746Z,80.60
2023-02-15T16:08:52.101Z,82.57
2023-02-15T16:11:23.704Z,82.91
2023-02-15T16:13:55.235Z,84.53
2023-02-15T16:16:29.068Z,85.56
2023-02-15T16:19:00.831Z,85.71
2023-02-15T16:21:33.154Z,85.77
2023-02-15T16:24:04.632Z,87.85
2023-02-15T16:26:36.163Z,89.29
2023-02-15T16:29:07.682Z,89.84
2023-02-15T16:31:39.310Z,90.22
2023-02-15T16:34:11.030Z,91.64
2023-02-15T16:36:42.919Z,91.80
2023-02-15T16:39:14.459Z,92.46
2023-02-15T16:41:47.097Z,93.07
2023-02-15T16:44:18.622Z,93.32
2023-02-15T16:46:50.286Z,93.69
2023-02-15T16:49:21.866Z,94.74
2023-02-15T16:51:53.355Z,96.50
2023-02-15T16:54:24.906Z,96.78
2023-02-15T16:56:56.490Z,98.29
2023-02-15T16:59:28.302Z,97.10
2023-02-15T17:02:00.155Z,97.41
2023-02-15T17:04:32.514Z,98.19
2023-02-15T17:07:04.008Z,99.68
2023-02-15T17:09:35.554Z,99.55
2023-02-15T17:12:08.512Z,100.00
2023-02-15T17:14:43.098Z,100.00
2023-02-15T17:17:14.990Z,100.00
2023-02-15T17:19:46.513Z,100.00
2023-02-15T17:22:18.008Z,100.00
2023-02-15T17:24:49.514Z,100.00
2023-02-15T17:27:21.097Z,100.00
2023-02-15T17:29:53.017Z,100.00
2023-02-15T17:32:25.395Z,100.00
2023-02-15T17:34:56.982Z,100.00
2023-02-15T17:37:28.907Z,100.00
2023-02-15T17:40:00.553Z,100.00
2023-02-15T17:42:32.516Z,100.00
2023-02-15T17:45:04.104Z,100.00
2023-02-15T17:47:35.939Z,100.00
2023-02-15T17:50:07.426Z,100.00
2023-02-15T17:52:39.117Z,100.00
2023-02-15T17:55:29.483Z,100.00
2023-02-15T17:58:01.042Z,100.00
2023-02-15T18:00:51.240Z,100.00
2023-02-15T18:03:41.692Z,100.00
2023-02-15T18:06:32.389Z,100.00
2023-02-15T18:09:22.524Z,100.00
2023-02-15T18:11:54.409Z,100.00
2023-02-15T18:14:25.933Z,100.00
2023-02-15T18:16:57.927Z,100.00
2023-02-15T18:19:29.515Z,100.00
2023-02-15T18:22:01.272Z,100.00
2023-02-15T18:24:32.801Z,100.00
2023-02-15T18:27:04.669Z,100.00
2023-02-15T18:29:36.195Z,100.00
2023-02-15T18:32:08.173Z,100.00
2023-02-15T18:34:39.811Z,100.00
2023-02-15T18:37:11.679Z,100.00
2023-02-15T18:39:45.569Z,100.00
2023-02-15T18:42:17.205Z,100.00
2023-02-15T18:44:48.699Z,100.00
2023-02-15T18:47:20.235Z,100.00
2023-02-15T18:49:51.720Z,100.00
2023-02-15T18:52:23.419Z,100.00
2023-02-15T18:54:54.976Z,100.00
2023-02-15T18:57:26.499Z,100.00
2023-02-15T18:59:57.993Z,100.00
2023-02-15T19:02:29.901Z,100.00
2023-02-15T19:05:01.398Z,100.00
2023-02-15T19:07:33.232Z,100.00
2023-02-15T19:10:04.806Z,100.00
2023-02-15T19:12:36.364Z,100.00
2023-02-15T19:15:08.908Z,100.00
2023-02-15T19:17:40.395Z,100.00
2023-02-15T19:20:11.873Z,100.00
2023-02-15T19:22:43.704Z,100.00
2023-02-15T19:25:15.169Z,100.00
2023-02-15T19:27:46.780Z,100.00
2023-02-15T19:30:18.311Z,100.00
2023-02-15T19:32:50.110Z,100.00
2023-02-15T19:35:22.462Z,100.00
2023-02-15T19:37:53.969Z,100.00
2023-02-15T19:40:25.533Z,100.00
2023-02-15T19:42:57.204Z,100.00
2023-02-15T19:45:28.701Z,100.00
2023-02-15T19:48:00.181Z,100.00
2023-02-15T19:50:31.690Z,100.00
2023-02-15T19:53:03.444Z,100.00
2023-02-15T19:55:34.997Z,100.00
2023-02-15T19:58:06.512Z,100.00
2023-02-15T20:00:38.045Z,100.00
2023-02-15T20:03:09.782Z,100.00
2023-02-15T20:05:42.321Z,100.00
2023-02-15T20:08:13.803Z,100.00
2023-02-15T20:10:45.904Z,100.00
2023-02-15T20:13:17.434Z,100.00
2023-02-15T20:15:49.031Z,100.00
2023-02-15T20:18:22.590Z,100.00
2023-02-15T20:20:54.316Z,100.00
2023-02-15T20:23:26.526Z,100.00
2023-02-15T20:25:58.889Z,100.00
2023-02-15T20:28:30.487Z,100.00
2023-02-15T20:31:02.507Z,100.00
2023-02-15T20:33:34.603Z,100.00
2023-02-15T20:36:06.587Z,100.00
2023-02-15T20:38:38.063Z,100.00
2023-02-15T20:41:28.888Z,100.00
2023-02-15T20:44:00.428Z,100.00
2023-02-15T20:46:32.000Z,100.00
2023-02-15T20:49:03.601Z,100.00
2023-02-15T20:51:35.196Z,100.00
2023-02-15T20:54:06.734Z,100.00
2023-02-15T20:56:38.291Z,100.00
2023-02-15T20:59:09.981Z,100.00
2023-02-15T21:01:41.976Z,100.00
2023-02-15T21:04:13.565Z,100.00
2023-02-15T21:06:45.382Z,100.00
2023-02-15T21:09:16.860Z,100.00
2023-02-15T21:11:48.397Z,100.00
2023-02-15T21:14:20.014Z,100.00
2023-02-15T21:16:51.898Z,100.00
2023-02-15T21:19:23.398Z,100.00
2023-02-15T21:21:54.990Z,100.00
2023-02-15T21:24:26.506Z,100.00
2023-02-15T21:26:58.393Z,100.00
2023-02-15T21:29:30.000Z,100.00
2023-02-15T21:32:03.017Z,100.00
2023-02-15T21:34:34.550Z,100.00
2023-02-15T21:37:06.482Z,100.00
2023-02-15T21:39:37.989Z,100.00
2023-02-15T21:42:28.688Z,100.00
2023-02-15T21:45:18.844Z,100.00
2023-02-15T21:47:51.795Z,100.00
2023-02-15T21:50:41.996Z,100.00
2023-02-15T21:53:13.817Z,100.00
2023-02-15T21:55:45.316Z,100.00
2023-02-15T21:58:16.825Z,100.00
2023-02-15T22:00:48.391Z,100.00
2023-02-15T22:03:19.937Z,100.00
2023-02-15T22:05:51.508Z,100.00
2023-02-15T22:08:23.077Z,100.00
2023-02-15T22:10:54.574Z,100.00
2023-02-15T22:13:26.626Z,100.00
2023-02-15T22:15:58.193Z,100.00
2023-02-15T22:18:33.027Z,100.00
2023-02-15T22:21:05.288Z,100.00
2023-02-15T22:23:37.360Z,100.00
2023-02-15T22:26:08.857Z,100.00
2023-02-15T22:28:40.516Z,100.00
2023-02-15T22:31:12.111Z,100.00
2023-02-15T22:33:45.151Z,100.00
2023-02-15T22:36:16.635Z,100.00
2023-02-15T22:38:48.376Z,100.00
2023-02-15T22:41:20.219Z,100.00
2023-02-15T22:43:52.048Z,100.00
2023-02-15T22:46:23.734Z,100.00
2023-02-15T22:48:55.608Z,100.00
2023-02-15T22:51:27.116Z,100.00
2023-02-15T22:53:58.744Z,100.00
2023-02-15T22:56:30.215Z,100.00
2023-02-15T22:59:02.134Z,100.00
2023-02-15T23:01:33.674Z,100.00
2023-02-15T23:04:05.603Z,100.00
2023-02-15T23:06:37.102Z,100.00
2023-02-15T23:09:08.949Z,100.00
2023-02-15T23:11:40.457Z,100.00
2023-02-15T23:14:12.285Z,100.00
2023-02-15T23:16:43.807Z,100.00
2023-02-15T23:19:15.375Z,100.00
2023-02-15T23:21:46.895Z,100.00
2023-02-15T23:24:18.554Z,100.00
2023-02-15T23:26:50.046Z,100.00
2023-02-15T23:29:21.551Z,100.00
2023-02-15T23:31:53.229Z,100.00
2023-02-15T23:34:25.198Z,100.00
2023-02-15T23:36:56.713Z,100.00
2023-02-15T23:39:47.561Z,100.00
2023-02-15T23:42:19.131Z,100.00
2023-02-15T23:44:51.120Z,100.00
2023-02-15T23:47:42.941Z,100.00
2023-02-15T23:50:14.434Z,100.00
2023-02-15T23:52:46.323Z,100.00
2023-02-15T23:55:17.806Z,100.00
2023-02-15T23:57:49.704Z,100.00
